TimePDT,TemperatureF,Dew PointF,Humidity,Sea Level PressureIn,VisibilityMPH,Wind Direction,Wind SpeedMPH,Gust SpeedMPH,PrecipitationIn,Events,Conditions,WindDirDegrees,DateUTC
12:53 AM,57.9,53.1,84,29.99,10.0,Calm,Calm,-,N/A,,Overcast,0,2012-04-25 07:53:00
1:53 AM,57.9,53.1,84,29.97,10.0,Calm,Calm,-,N/A,,Overcast,0,2012-04-25 08:53:00
2:53 AM,57.9,54.0,87,29.96,10.0,Calm,Calm,-,N/A,,Overcast,0,2012-04-25 09:53:00
3:49 AM,57.2,53.6,88,29.97,10.0,West,3.5,-,N/A,,Overcast,270,2012-04-25 10:49:00
3:53 AM,57.0,54.0,89,29.95,10.0,Calm,Calm,-,N/A,,Overcast,0,2012-04-25 10:53:00
4:17 AM,57.2,53.6,88,29.95,10.0,Calm,Calm,-,N/A,,Overcast,0,2012-04-25 11:17:00
4:36 AM,57.2,53.6,88,29.95,10.0,Calm,Calm,-,N/A,,Overcast,0,2012-04-25 11:36:00
4:53 AM,57.0,55.0,93,29.93,10.0,Calm,Calm,-,N/A,,Overcast,0,2012-04-25 11:53:00
5:53 AM,57.9,55.0,90,29.93,10.0,Calm,Calm,-,N/A,,Overcast,0,2012-04-25 12:53:00
6:53 AM,57.9,55.0,90,29.91,10.0,Calm,Calm,-,N/A,,Overcast,0,2012-04-25 13:53:00
7:53 AM,57.9,55.0,90,29.90,10.0,Calm,Calm,-,N/A,,Overcast,0,2012-04-25 14:53:00
8:53 AM,59.0,54.0,83,29.91,10.0,Calm,Calm,-,N/A,,Overcast,0,2012-04-25 15:53:00
9:53 AM,61.0,54.0,78,29.91,10.0,Calm,Calm,-,N/A,,Overcast,0,2012-04-25 16:53:00
10:53 AM,63.0,54.0,72,29.89,10.0,SE,3.5,-,N/A,,Overcast,140,2012-04-25 17:53:00
11:05 AM,62.6,53.6,72,29.90,10.0,Calm,Calm,-,N/A,,Overcast,0,2012-04-25 18:05:00
12:53 PM,64.9,53.1,65,29.85,10.0,SW,4.6,-,N/A,,Overcast,220,2012-04-25 19:53:00
1:53 PM,66.0,54.0,65,29.83,10.0,South,6.9,-,N/A,,Overcast,190,2012-04-25 20:53:00
2:53 PM,66.9,52.0,59,29.81,10.0,SW,5.8,-,N/A,,Mostly Cloudy,230,2012-04-25 21:53:00
3:53 PM,68.0,51.1,55,29.78,10.0,SW,5.8,-,N/A,,Mostly Cloudy,230,2012-04-25 22:53:00
4:53 PM,66.0,52.0,60,29.78,10.0,West,6.9,-,N/A,,Overcast,270,2012-04-25 23:53:00
5:53 PM,63.0,51.1,65,29.79,10.0,WSW,9.2,-,N/A,,Overcast,240,2012-04-26 00:53:00
6:53 PM,62.1,52.0,70,29.78,10.0,SSW,4.6,-,N/A,,Overcast,210,2012-04-26 01:53:00
7:53 PM,60.1,54.0,80,29.78,9.0,SSW,3.5,-,0.01,Rain,Light Rain,200,2012-04-26 02:53:00
8:53 PM,59.0,55.9,90,29.78,10.0,South,4.6,-,0.00,Rain,Light Rain,170,2012-04-26 03:53:00
9:20 PM,57.2,55.4,94,29.79,10.0,SSE,8.1,-,0.00,,Overcast,150,2012-04-26 04:20:00
9:53 PM,55.9,54.0,93,29.76,10.0,SSE,4.6,-,0.00,,Overcast,150,2012-04-26 04:53:00
10:50 PM,55.4,53.6,94,29.77,10.0,Calm,Calm,-,N/A,,Overcast,0,2012-04-26 05:50:00
10:53 PM,55.9,54.0,93,29.75,10.0,Calm,Calm,-,N/A,,Overcast,0,2012-04-26 05:53:00
11:37 PM,55.4,53.6,94,29.76,10.0,Calm,Calm,-,N/A,,Overcast,0,2012-04-26 06:37:00
11:53 PM,55.9,54.0,93,29.75,10.0,South,3.5,-,N/A,,Overcast,190,2012-04-26 06:53:00